Time;durP1;ratioP1;P1;durP2;ratioP2;P2;SDS_P1;SDS_P2;PMS_P1;PMS_P2;Temp;Humidity;BMP_temperature;BMP_pressure;BME280_temperature;BME280_humidity;BME280_pressure;Samples;Min_cycle;Max_cycle;Signal;HPM_P1;HPM_P2
2022/12/11 00:01:17;;;;;;;32.20;11.63;;;;;;;;;;5031483;28;20100;-82
2022/12/11 00:03:42;;;;;;;29.57;10.87;;;;;;;;;;5031013;28;20477;-81
2022/12/11 00:06:08;;;;;;;31.07;11.27;;;;;;;;;;5030841;28;20014;-82
2022/12/11 00:08:33;;;;;;;33.13;11.60;;;;;;;;;;5030938;28;20022;-82
2022/12/11 00:10:59;;;;;;;32.73;12.27;;;;;;;;;;5030826;28;20024;-81
2022/12/11 00:13:24;;;;;;;29.43;11.40;;;;;;;;;;5032834;28;20025;-81
2022/12/11 00:15:49;;;;;;;30.47;11.13;;;;;;;;;;5029480;28;20021;-81
2022/12/11 00:18:14;;;;;;;28.57;10.67;;;;;;;;;;5030505;28;20384;-81
2022/12/11 00:20:40;;;;;;;25.03;10.47;;;;;;;;;;5032238;28;20022;-81
2022/12/11 00:23:05;;;;;;;31.63;10.50;;;;;;;;;;5031171;28;20096;-82
2022/12/11 00:25:30;;;;;;;29.30;10.97;;;;;;;;;;5030712;28;20030;-81
2022/12/11 00:27:55;;;;;;;26.27;11.17;;;;;;;;;;5030670;28;20028;-81
2022/12/11 00:30:20;;;;;;;35.07;11.20;;;;;;;;;;5030038;28;20109;-82
2022/12/11 00:32:45;;;;;;;27.73;11.07;;;;;;;;;;5030677;28;20546;-81
2022/12/11 00:35:11;;;;;;;29.73;10.87;;;;;;;;;;5031946;28;20025;-81
2022/12/11 00:37:36;;;;;;;30.97;11.67;;;;;;;;;;5047246;28;20036;-81
2022/12/11 00:40:02;;;;;;;28.10;11.67;;;;;;;;;;5031905;28;20488;-82
2022/12/11 00:42:27;;;;;;;26.73;10.40;;;;;;;;;;5030740;28;20041;-82
2022/12/11 00:44:53;;;;;;;25.17;10.03;;;;;;;;;;5029680;28;20026;-82
2022/12/11 00:47:19;;;;;;;28.67;9.87;;;;;;;;;;5032056;28;20115;-82
2022/12/11 00:49:44;;;;;;;28.23;10.20;;;;;;;;;;5049917;28;20458;-82
2022/12/11 00:52:09;;;;;;;25.83;11.07;;;;;;;;;;5034252;28;20017;-82
2022/12/11 00:54:35;;;;;;;32.47;10.83;;;;;;;;;;5034420;28;20026;-82
2022/12/11 00:57:00;;;;;;;28.77;10.30;;;;;;;;;;5021474;28;20033;-82
2022/12/11 00:59:26;;;;;;;26.90;9.63;;;;;;;;;;5033050;28;20029;-81
2022/12/11 01:01:51;;;;;;;25.70;10.17;;;;;;;;;;5033635;28;20029;-82
2022/12/11 01:04:17;;;;;;;28.27;11.57;;;;;;;;;;5034004;28;20018;-81
2022/12/11 01:06:42;;;;;;;27.57;9.97;;;;;;;;;;5034090;28;20022;-82
2022/12/11 01:11:51;;;;;;;28.07;9.90;;;;;;;;;;5035887;28;20032;-81
2022/12/11 01:14:16;;;;;;;31.53;10.20;;;;;;;;;;5049656;28;20025;-81
2022/12/11 01:16:41;;;;;;;25.20;9.53;;;;;;;;;;5033952;28;20037;-81
2022/12/11 01:19:06;;;;;;;23.23;8.93;;;;;;;;;;5050642;28;20109;-81
2022/12/11 01:21:32;;;;;;;29.53;10.07;;;;;;;;;;5050373;28;20112;-81
2022/12/11 01:23:57;;;;;;;27.37;9.43;;;;;;;;;;5033793;28;20029;-82
2022/12/11 01:26:22;;;;;;;26.03;9.40;;;;;;;;;;5050198;28;20397;-82
2022/12/11 01:28:49;;;;;;;21.57;8.00;;;;;;;;;;5047671;28;20033;-82
2022/12/11 01:31:15;;;;;;;27.17;10.40;;;;;;;;;;5033544;28;20021;-82
2022/12/11 01:33:40;;;;;;;21.57;8.47;;;;;;;;;;5033568;28;20107;-81
2022/12/11 01:36:09;;;;;;;21.43;9.60;;;;;;;;;;5034993;28;20061;-82
2022/12/11 01:38:34;;;;;;;22.97;8.97;;;;;;;;;;5050005;28;20024;-81
2022/12/11 01:41:00;;;;;;;21.30;9.97;;;;;;;;;;5049425;28;20025;-82
2022/12/11 01:43:25;;;;;;;19.83;8.80;;;;;;;;;;5033256;28;20108;-81
2022/12/11 01:45:50;;;;;;;21.87;9.50;;;;;;;;;;5050004;28;20035;-82
2022/12/11 01:48:15;;;;;;;22.93;9.73;;;;;;;;;;5049889;28;20021;-81
2022/12/11 01:50:44;;;;;;;23.60;9.43;;;;;;;;;;5050004;28;20380;-82
2022/12/11 01:53:10;;;;;;;22.23;9.40;;;;;;;;;;5049882;28;20032;-81
2022/12/11 01:55:37;;;;;;;21.10;9.43;;;;;;;;;;5047567;28;20026;-81
2022/12/11 01:58:02;;;;;;;24.07;10.23;;;;;;;;;;5022142;28;20484;-82
2022/12/11 02:00:28;;;;;;;18.50;8.67;;;;;;;;;;5033073;28;20026;-82
2022/12/11 02:02:53;;;;;;;20.53;8.13;;;;;;;;;;5049645;28;20030;-82
2022/12/11 02:05:18;;;;;;;21.73;9.23;;;;;;;;;;5049686;28;20028;-81
2022/12/11 02:07:46;;;;;;;21.73;8.80;;;;;;;;;;5049214;28;20112;-81
2022/12/11 02:10:12;;;;;;;23.33;10.73;;;;;;;;;;5023237;28;20350;-82
2022/12/11 02:12:44;;;;;;;20.80;8.77;;;;;;;;;;5032312;28;20032;-81
2022/12/11 02:15:28;;;;;;;20.75;8.93;;;;;;;;;;5049816;28;20025;-81
2022/12/11 02:17:53;;;;;;;20.80;7.80;;;;;;;;;;5033948;28;20487;-82
2022/12/11 02:20:24;;;;;;;22.83;9.17;;;;;;;;;;5049896;28;20204;-82
2022/12/11 02:23:08;;;;;;;22.93;8.57;;;;;;;;;;5049207;28;20091;-82
2022/12/11 02:25:33;;;;;;;24.83;8.70;;;;;;;;;;5047749;28;20033;-82
2022/12/11 02:28:07;;;;;;;22.60;8.63;;;;;;;;;;5049123;28;20332;-81
2022/12/11 02:30:33;;;;;;;25.70;9.47;;;;;;;;;;5033969;28;20037;-82
2022/12/11 02:32:59;;;;;;;23.60;8.43;;;;;;;;;;5049102;28;20596;-82
2022/12/11 02:35:30;;;;;;;24.63;9.40;;;;;;;;;;5048203;28;20056;-82
2022/12/11 02:37:57;;;;;;;23.97;9.73;;;;;;;;;;5049394;28;20018;-82
2022/12/11 02:40:25;;;;;;;21.43;9.13;;;;;;;;;;5035411;28;20021;-82
2022/12/11 02:42:51;;;;;;;22.37;8.97;;;;;;;;;;5049012;28;20017;-82
2022/12/11 02:45:17;;;;;;;24.80;9.97;;;;;;;;;;5033500;28;20056;-82
2022/12/11 02:47:44;;;;;;;23.23;9.03;;;;;;;;;;5048164;28;20057;-82
2022/12/11 02:50:12;;;;;;;22.63;9.30;;;;;;;;;;5033415;28;20028;-82
2022/12/11 02:52:38;;;;;;;25.07;9.87;;;;;;;;;;5048695;28;20033;-82
2022/12/11 02:55:05;;;;;;;27.60;9.20;;;;;;;;;;5048570;28;20020;-81
2022/12/11 02:57:34;;;;;;;26.03;9.97;;;;;;;;;;5034581;28;20025;-82
2022/12/11 03:00:00;;;;;;;25.03;10.33;;;;;;;;;;5048675;28;20017;-81
2022/12/11 03:02:25;;;;;;;22.80;8.77;;;;;;;;;;5031005;28;20021;-81
2022/12/11 03:04:50;;;;;;;25.43;9.43;;;;;;;;;;5048468;28;20028;-82
2022/12/11 03:07:26;;;;;;;23.83;9.57;;;;;;;;;;5048481;28;20025;-82
2022/12/11 03:09:52;;;;;;;23.70;8.83;;;;;;;;;;5037130;28;20325;-82
2022/12/11 03:12:26;;;;;;;24.37;9.17;;;;;;;;;;5047953;28;20017;-82
2022/12/11 03:14:52;;;;;;;21.20;8.67;;;;;;;;;;5048291;28;20465;-82
2022/12/11 03:17:17;;;;;;;21.17;8.40;;;;;;;;;;5032037;28;20033;-82
2022/12/11 03:19:47;;;;;;;22.77;9.13;;;;;;;;;;5048017;28;20445;-82
2022/12/11 03:22:20;;;;;;;25.10;8.87;;;;;;;;;;5033102;28;20033;-82
2022/12/11 03:24:51;;;;;;;20.70;8.13;;;;;;;;;;5048096;28;20017;-83
2022/12/11 03:27:21;;;;;;;31.73;8.20;;;;;;;;;;5048132;28;20035;-82
2022/12/11 03:29:52;;;;;;;22.37;9.67;;;;;;;;;;5047196;28;20424;-82
2022/12/11 03:32:21;;;;;;;21.10;8.13;;;;;;;;;;5033014;28;20028;-82
2022/12/11 03:34:53;;;;;;;22.73;9.27;;;;;;;;;;5046339;28;20018;-81
2022/12/11 03:37:20;;;;;;;26.10;10.07;;;;;;;;;;5028189;28;20532;-82
2022/12/11 03:39:47;;;;;;;26.67;10.20;;;;;;;;;;5015138;28;20026;-82
2022/12/11 03:42:13;;;;;;;24.60;9.57;;;;;;;;;;5025122;28;20052;-82
2022/12/11 03:44:39;;;;;;;30.17;10.50;;;;;;;;;;5043555;28;20481;-82
2022/12/11 03:47:06;;;;;;;34.17;11.00;;;;;;;;;;5031053;28;20029;-82
2022/12/11 03:49:37;;;;;;;29.20;9.67;;;;;;;;;;5031193;28;20079;-82
2022/12/11 03:52:03;;;;;;;26.20;9.83;;;;;;;;;;5029103;28;20044;-82
2022/12/11 03:54:29;;;;;;;29.90;10.07;;;;;;;;;;5037084;28;20045;-82
2022/12/11 03:56:56;;;;;;;31.87;10.20;;;;;;;;;;5031133;28;20520;-82
2022/12/11 03:59:22;;;;;;;25.50;9.17;;;;;;;;;;5030373;28;20143;-82
2022/12/11 04:01:47;;;;;;;27.40;9.40;;;;;;;;;;5032438;28;20017;-82
2022/12/11 04:04:12;;;;;;;23.07;8.87;;;;;;;;;;5047540;28;20021;-82
2022/12/11 04:06:38;;;;;;;24.30;8.30;;;;;;;;;;5032276;28;20461;-82
2022/12/11 04:09:03;;;;;;;23.00;8.77;;;;;;;;;;5036455;28;20101;-82
2022/12/11 04:11:34;;;;;;;28.03;8.90;;;;;;;;;;5036320;28;20018;-82
2022/12/11 04:16:44;;;;;;;28.80;10.10;;;;;;;;;;5032723;28;20385;-82
2022/12/11 04:24:37;;;;;;;26.73;9.07;;;;;;;;;;5035155;28;20095;-82
2022/12/11 04:27:02;;;;;;;25.97;10.53;;;;;;;;;;5050661;28;20026;-82
2022/12/11 04:29:27;;;;;;;23.53;9.30;;;;;;;;;;5034726;28;20057;-82
2022/12/11 04:31:52;;;;;;;30.30;10.37;;;;;;;;;;5051446;28;20030;-83
2022/12/11 04:34:18;;;;;;;27.13;10.87;;;;;;;;;;5034663;28;20052;-82
2022/12/11 04:36:43;;;;;;;27.23;9.83;;;;;;;;;;5034672;28;20548;-81
2022/12/11 04:39:08;;;;;;;26.10;9.43;;;;;;;;;;5051255;28;20160;-82
2022/12/11 04:41:34;;;;;;;33.03;10.27;;;;;;;;;;5050501;28;20025;-82
2022/12/11 04:43:59;;;;;;;31.23;10.60;;;;;;;;;;5025233;28;20069;-82
2022/12/11 04:46:25;;;;;;;27.40;10.90;;;;;;;;;;5029715;28;20021;-82
2022/12/11 04:48:51;;;;;;;29.63;10.70;;;;;;;;;;5034804;28;20021;-82
2022/12/11 04:51:16;;;;;;;29.90;11.40;;;;;;;;;;5034459;28;20013;-82
2022/12/11 04:53:41;;;;;;;30.13;10.60;;;;;;;;;;5034353;28;20014;-82
2022/12/11 04:56:08;;;;;;;29.03;10.83;;;;;;;;;;5034990;28;20106;-82
2022/12/11 04:58:34;;;;;;;31.00;9.47;;;;;;;;;;5034271;28;20055;-82
2022/12/11 05:01:00;;;;;;;27.37;11.80;;;;;;;;;;5050918;28;20029;-82
2022/12/11 05:03:25;;;;;;;35.60;11.77;;;;;;;;;;5034089;28;20031;-82
2022/12/11 05:05:51;;;;;;;27.00;10.37;;;;;;;;;;5034178;28;20369;-82
2022/12/11 05:08:17;;;;;;;23.03;8.67;;;;;;;;;;5034051;28;20033;-82
2022/12/11 05:10:42;;;;;;;25.33;9.90;;;;;;;;;;5033263;28;20053;-81
2022/12/11 05:13:07;;;;;;;29.83;9.80;;;;;;;;;;5050721;28;20496;-82
2022/12/11 05:15:33;;;;;;;28.17;9.67;;;;;;;;;;5050492;28;20464;-82
2022/12/11 05:17:58;;;;;;;26.73;9.67;;;;;;;;;;5049375;28;20492;-83
2022/12/11 05:20:23;;;;;;;25.23;9.83;;;;;;;;;;5049151;28;20025;-82
2022/12/11 05:22:48;;;;;;;30.47;11.10;;;;;;;;;;5034012;28;20029;-82
2022/12/11 05:25:13;;;;;;;27.90;7.50;;;;;;;;;;5031849;28;20489;-82
2022/12/11 05:27:38;;;;;;;26.27;9.97;;;;;;;;;;5032456;28;20014;-82
2022/12/11 05:30:04;;;;;;;29.23;10.10;;;;;;;;;;5049193;28;20017;-82
2022/12/11 05:32:29;;;;;;;26.07;10.20;;;;;;;;;;5032380;28;20378;-82
2022/12/11 05:34:54;;;;;;;23.50;10.03;;;;;;;;;;5032236;28;20021;-82
2022/12/11 05:37:20;;;;;;;25.27;9.20;;;;;;;;;;5033760;28;20453;-82
2022/12/11 05:39:45;;;;;;;24.87;9.30;;;;;;;;;;5048167;28;20056;-82
2022/12/11 05:42:10;;;;;;;29.53;9.77;;;;;;;;;;5048992;28;20033;-82
2022/12/11 05:44:35;;;;;;;31.03;9.87;;;;;;;;;;5019508;28;20022;-82
2022/12/11 05:47:00;;;;;;;25.77;9.87;;;;;;;;;;5048835;28;20448;-82
2022/12/11 05:49:26;;;;;;;27.57;9.47;;;;;;;;;;5048896;28;20021;-82
2022/12/11 05:51:51;;;;;;;22.17;9.20;;;;;;;;;;5048925;28;20428;-82
2022/12/11 05:54:16;;;;;;;33.67;10.03;;;;;;;;;;5048103;28;20029;-82
2022/12/11 05:56:41;;;;;;;31.23;10.47;;;;;;;;;;5032004;28;20090;-82
2022/12/11 05:59:07;;;;;;;24.83;8.37;;;;;;;;;;5032104;28;20461;-83
2022/12/11 06:01:37;;;;;;;26.50;9.57;;;;;;;;;;5048775;28;20389;-82
2022/12/11 06:04:03;;;;;;;25.80;10.17;;;;;;;;;;5035342;28;20022;-82
2022/12/11 06:06:29;;;;;;;25.07;9.70;;;;;;;;;;5031907;28;20018;-82
2022/12/11 06:08:55;;;;;;;27.73;9.97;;;;;;;;;;5032313;28;20072;-82
2022/12/11 06:11:20;;;;;;;28.17;9.40;;;;;;;;;;5033240;28;20513;-82
2022/12/11 06:13:46;;;;;;;36.90;10.03;;;;;;;;;;5048400;28;20045;-82
2022/12/11 06:16:11;;;;;;;26.80;10.10;;;;;;;;;;4990743;28;1161379;-82
2022/12/11 06:18:37;;;;;;;16.60;6.27;;;;;;;;;;5032838;28;20477;-81
2022/12/11 06:21:13;;;;;;;27.73;10.43;;;;;;;;;;5033730;28;20044;-81
2022/12/11 06:23:39;;;;;;;26.80;9.43;;;;;;;;;;5043176;28;20101;-82
2022/12/11 06:26:04;;;;;;;25.37;9.43;;;;;;;;;;5049083;28;20045;-82
2022/12/11 06:28:29;;;;;;;30.30;9.47;;;;;;;;;;5049385;28;20057;-82
2022/12/11 06:30:57;;;;;;;26.77;9.67;;;;;;;;;;5033853;28;20017;-82
2022/12/11 06:33:22;;;;;;;25.87;9.40;;;;;;;;;;5049222;28;20035;-82
2022/12/11 06:35:48;;;;;;;24.80;10.33;;;;;;;;;;5047599;28;20112;-82
2022/12/11 06:38:13;;;;;;;28.40;9.90;;;;;;;;;;5033807;28;20335;-82
2022/12/11 06:40:38;;;;;;;29.33;10.47;;;;;;;;;;5033904;28;20027;-82
2022/12/11 06:43:03;;;;;;;30.53;10.00;;;;;;;;;;5030509;28;20029;-82
2022/12/11 06:45:29;;;;;;;28.23;9.63;;;;;;;;;;5019940;28;20400;-82
2022/12/11 06:47:54;;;;;;;30.00;9.80;;;;;;;;;;5033090;28;20029;-82
2022/12/11 06:50:19;;;;;;;23.50;9.10;;;;;;;;;;5048208;28;20013;-82
2022/12/11 06:52:44;;;;;;;31.90;10.20;;;;;;;;;;5032120;28;20029;-82
2022/12/11 06:55:10;;;;;;;26.77;9.83;;;;;;;;;;5032165;28;20021;-82
2022/12/11 06:57:35;;;;;;;27.07;9.30;;;;;;;;;;5033435;28;20381;-82
2022/12/11 07:00:01;;;;;;;26.67;9.20;;;;;;;;;;5048549;28;20107;-82
2022/12/11 07:02:26;;;;;;;24.90;9.30;;;;;;;;;;5048670;28;20018;-82
2022/12/11 07:04:51;;;;;;;27.57;10.70;;;;;;;;;;5047796;28;20028;-82
2022/12/11 07:07:16;;;;;;;27.40;10.20;;;;;;;;;;5033119;28;20027;-82
2022/12/11 07:09:41;;;;;;;28.00;10.03;;;;;;;;;;5031770;28;20014;-82
2022/12/11 07:12:07;;;;;;;30.30;10.17;;;;;;;;;;5031711;28;20009;-82
2022/12/11 07:14:32;;;;;;;29.87;10.43;;;;;;;;;;5031794;28;20013;-82
2022/12/11 07:16:57;;;;;;;26.37;10.40;;;;;;;;;;5048025;28;20036;-81
2022/12/11 07:19:23;;;;;;;28.00;9.47;;;;;;;;;;5030430;28;20060;-82
2022/12/11 07:21:48;;;;;;;23.37;8.53;;;;;;;;;;5048210;28;20072;-82
2022/12/11 07:24:13;;;;;;;30.17;8.53;;;;;;;;;;5032842;28;20013;-83
2022/12/11 07:26:39;;;;;;;25.70;9.73;;;;;;;;;;5048219;28;20132;-82
2022/12/11 07:29:04;;;;;;;29.90;10.83;;;;;;;;;;5048009;28;20033;-82
2022/12/11 07:31:29;;;;;;;32.40;10.07;;;;;;;;;;5031545;28;20021;-82
2022/12/11 07:33:55;;;;;;;29.87;10.23;;;;;;;;;;5030854;28;20504;-82
2022/12/11 07:36:21;;;;;;;27.60;10.03;;;;;;;;;;5031480;28;20021;-83
2022/12/11 07:38:46;;;;;;;25.93;10.00;;;;;;;;;;5031618;28;20490;-83
2022/12/11 07:41:13;;;;;;;30.67;10.50;;;;;;;;;;5032729;28;20024;-82
2022/12/11 07:43:38;;;;;;;20.60;7.97;;;;;;;;;;5025057;28;20022;-82
2022/12/11 07:46:05;;;;;;;23.07;8.33;;;;;;;;;;5040368;28;20399;-82
2022/12/11 07:48:30;;;;;;;27.60;10.23;;;;;;;;;;5046340;28;20021;-82
2022/12/11 07:51:05;;;;;;;29.67;9.73;;;;;;;;;;5029523;28;20669;-82
2022/12/11 07:53:31;;;;;;;29.03;12.03;;;;;;;;;;5046472;28;20025;-82
2022/12/11 07:55:58;;;;;;;28.00;10.67;;;;;;;;;;5030644;28;20032;-82
2022/12/11 07:58:23;;;;;;;25.63;9.57;;;;;;;;;;5029334;28;20029;-81
2022/12/11 08:00:48;;;;;;;23.57;9.53;;;;;;;;;;5027097;28;20028;-82
2022/12/11 08:03:13;;;;;;;20.80;8.07;;;;;;;;;;5030865;28;20361;-81
2022/12/11 08:05:38;;;;;;;29.17;10.40;;;;;;;;;;5029128;28;20022;-82
2022/12/11 08:08:04;;;;;;;21.37;8.57;;;;;;;;;;5027239;28;20104;-82
2022/12/11 08:10:29;;;;;;;19.83;7.67;;;;;;;;;;5027779;28;20022;-83
2022/12/11 08:12:54;;;;;;;21.80;8.82;;;;;;;;;;5029439;28;20480;-83
2022/12/11 08:15:19;;;;;;;23.85;9.38;;;;;;;;;;5030580;28;20079;-84
2022/12/11 08:17:45;;;;;;;23.80;8.53;;;;;;;;;;5046687;28;20048;-83
2022/12/11 08:20:10;;;;;;;21.37;8.17;;;;;;;;;;5047080;28;20021;-83
2022/12/11 08:22:35;;;;;;;24.27;7.90;;;;;;;;;;5029240;28;20022;-83
2022/12/11 08:25:00;;;;;;;22.03;8.20;;;;;;;;;;5027383;28;20025;-84
2022/12/11 08:27:25;;;;;;;26.00;9.70;;;;;;;;;;5027561;28;20030;-82
2022/12/11 08:29:51;;;;;;;20.90;6.83;;;;;;;;;;5031993;28;20127;-82
2022/12/11 08:32:16;;;;;;;21.30;8.40;;;;;;;;;;5029262;28;20098;-82
2022/12/11 08:34:42;;;;;;;22.97;9.07;;;;;;;;;;5044444;28;20488;-82
2022/12/11 08:37:07;;;;;;;25.83;9.67;;;;;;;;;;5027435;28;20032;-82
2022/12/11 08:39:32;;;;;;;32.03;10.70;;;;;;;;;;5025828;28;20079;-80
2022/12/11 08:41:57;;;;;;;20.33;7.53;;;;;;;;;;5041303;28;20029;-81
2022/12/11 08:44:24;;;;;;;26.67;9.57;;;;;;;;;;5038258;28;21508;-83
2022/12/11 08:46:50;;;;;;;23.17;8.87;;;;;;;;;;5027831;28;20412;-83
2022/12/11 08:49:15;;;;;;;24.93;9.00;;;;;;;;;;5043042;28;20119;-82
2022/12/11 08:51:40;;;;;;;27.67;8.93;;;;;;;;;;5040719;28;20021;-81
2022/12/11 08:54:06;;;;;;;25.90;9.97;;;;;;;;;;5025485;28;20371;-81
2022/12/11 08:56:31;;;;;;;27.73;10.70;;;;;;;;;;5027285;28;20385;-80
2022/12/11 08:58:58;;;;;;;32.13;10.07;;;;;;;;;;5027411;28;20024;-80
2022/12/11 09:01:24;;;;;;;30.10;11.13;;;;;;;;;;5032339;28;20560;-80
2022/12/11 09:03:50;;;;;;;27.73;11.43;;;;;;;;;;5025067;28;20022;-80
2022/12/11 09:06:17;;;;;;;33.40;10.87;;;;;;;;;;5039117;28;20123;-80
2022/12/11 09:08:44;;;;;;;34.40;12.53;;;;;;;;;;5035766;28;20112;-79
2022/12/11 09:11:10;;;;;;;36.57;10.23;;;;;;;;;;5038931;28;20313;-79
2022/12/11 09:13:36;;;;;;;26.03;8.93;;;;;;;;;;5034339;28;20036;-80
2022/12/11 09:16:05;;;;;;;31.90;11.83;;;;;;;;;;5049267;28;20029;-80
2022/12/11 09:18:31;;;;;;;32.93;11.80;;;;;;;;;;5034463;28;20372;-80
2022/12/11 09:21:00;;;;;;;29.13;10.37;;;;;;;;;;5035201;28;20021;-80
2022/12/11 09:23:25;;;;;;;28.07;10.80;;;;;;;;;;5041632;28;20021;-80
2022/12/11 09:25:50;;;;;;;29.33;11.87;;;;;;;;;;5034031;28;20036;-80
2022/12/11 09:28:16;;;;;;;32.60;11.60;;;;;;;;;;5031689;28;20039;-80
2022/12/11 09:30:41;;;;;;;30.23;11.73;;;;;;;;;;5029788;28;20409;-80
2022/12/11 09:33:06;;;;;;;4.80;1.63;;;;;;;;;;5032816;28;20013;-80
2022/12/11 09:35:31;;;;;;;28.13;10.13;;;;;;;;;;5032210;28;20022;-80
2022/12/11 09:37:56;;;;;;;28.17;10.90;;;;;;;;;;5041070;28;20369;-80
2022/12/11 09:40:22;;;;;;;32.07;11.50;;;;;;;;;;5044584;28;20485;-80
2022/12/11 09:42:50;;;;;;;28.63;10.90;;;;;;;;;;5031083;28;20033;-79
2022/12/11 09:45:16;;;;;;;27.73;10.63;;;;;;;;;;5034662;28;20060;-78
2022/12/11 09:47:43;;;;;;;29.87;11.93;;;;;;;;;;5028983;28;20053;-79
2022/12/11 09:50:08;;;;;;;28.30;10.67;;;;;;;;;;5017620;28;20028;-78
2022/12/11 09:52:45;;;;;;;23.50;9.70;;;;;;;;;;5038256;28;20354;-79
2022/12/11 09:55:18;;;;;;;29.00;11.50;;;;;;;;;;5028709;28;20021;-80
2022/12/11 09:57:59;;;;;;;30.20;11.07;;;;;;;;;;5031079;28;20100;-79
2022/12/11 10:00:27;;;;;;;26.53;12.47;;;;;;;;;;5016555;28;20421;-80
2022/12/11 10:02:52;;;;;;;28.50;10.50;;;;;;;;;;5031181;28;20516;-80
2022/12/11 10:05:36;;;;;;;26.27;10.30;;;;;;;;;;5032210;28;20021;-82
2022/12/11 10:08:08;;;;;;;26.63;11.80;;;;;;;;;;5041514;28;20200;-84
2022/12/11 10:10:43;;;;;;;29.73;11.93;;;;;;;;;;5032799;28;20096;-83
2022/12/11 10:13:30;;;;;;;28.60;13.30;;;;;;;;;;5029802;28;20028;-83
2022/12/11 10:15:58;;;;;;;33.60;11.03;;;;;;;;;;5034696;28;20425;-83
2022/12/11 10:18:25;;;;;;;26.90;10.17;;;;;;;;;;5027092;28;20037;-83
2022/12/11 10:20:51;;;;;;;29.03;9.47;;;;;;;;;;5029153;28;20022;-83
2022/12/11 10:23:21;;;;;;;26.67;10.60;;;;;;;;;;5018813;28;20032;-83
2022/12/11 10:25:55;;;;;;;25.27;10.60;;;;;;;;;;5027843;28;20057;-85
2022/12/11 10:28:21;;;;;;;25.43;10.80;;;;;;;;;;5019059;28;20225;-85
2022/12/11 10:31:01;;;;;;;19.93;7.20;;;;;;;;;;5025264;28;20040;-85
2022/12/11 10:33:36;;;;;;;25.87;9.43;;;;;;;;;;5039862;28;20044;-83
2022/12/11 10:36:01;;;;;;;19.47;8.33;;;;;;;;;;5034568;28;20080;-88
2022/12/11 10:38:37;;;;;;;22.53;9.00;;;;;;;;;;5039401;28;20454;-83
2022/12/11 10:41:20;;;;;;;21.83;7.57;;;;;;;;;;5017329;28;20025;-84
2022/12/11 10:43:49;;;;;;;17.57;7.03;;;;;;;;;;5034665;28;20029;-86
2022/12/11 10:46:17;;;;;;;17.30;7.53;;;;;;;;;;5028498;28;20406;-83
2022/12/11 10:48:46;;;;;;;17.20;8.07;;;;;;;;;;5033195;28;20315;-84
2022/12/11 10:51:13;;;;;;;26.23;9.70;;;;;;;;;;5014662;28;20030;-87
2022/12/11 10:53:39;;;;;;;26.97;11.03;;;;;;;;;;5022113;28;20025;-84
2022/12/11 10:56:05;;;;;;;22.33;8.63;;;;;;;;;;5029406;28;20052;-85
2022/12/11 10:58:32;;;;;;;21.30;8.43;;;;;;;;;;5040502;28;20060;-84
2022/12/11 11:01:19;;;;;;;20.53;8.07;;;;;;;;;;5019428;28;20026;-84
2022/12/11 11:03:55;;;;;;;20.33;9.33;;;;;;;;;;5020287;28;20053;-85
2022/12/11 11:06:21;;;;;;;21.93;10.03;;;;;;;;;;5038184;28;20027;-83
2022/12/11 11:08:48;;;;;;;22.70;10.57;;;;;;;;;;5016252;28;20037;-83
2022/12/11 11:11:33;;;;;;;23.03;9.93;;;;;;;;;;5018610;28;20060;-83
2022/12/11 11:14:18;;;;;;;21.40;9.70;;;;;;;;;;5042330;28;20022;-83
2022/12/11 11:16:45;;;;;;;24.73;11.57;;;;;;;;;;5039740;28;20026;-83
2022/12/11 11:19:18;;;;;;;27.90;10.33;;;;;;;;;;5023299;28;20101;-83
2022/12/11 11:21:55;;;;;;;24.67;10.87;;;;;;;;;;5027393;28;20068;-83
2022/12/11 11:24:26;;;;;;;25.47;12.07;;;;;;;;;;5026930;28;20353;-84
2022/12/11 11:26:51;;;;;;;20.47;8.73;;;;;;;;;;5025839;28;20365;-83
2022/12/11 11:29:29;;;;;;;23.70;10.67;;;;;;;;;;5028427;28;20024;-84
2022/12/11 11:31:54;;;;;;;25.33;9.07;;;;;;;;;;5014293;28;20107;-87
2022/12/11 11:34:21;;;;;;;15.00;6.37;;;;;;;;;;5042858;28;20462;-85
2022/12/11 11:36:55;;;;;;;19.67;7.83;;;;;;;;;;5034917;28;20025;-85
2022/12/11 11:39:27;;;;;;;21.67;9.10;;;;;;;;;;5029464;28;20025;-83
2022/12/11 11:42:10;;;;;;;23.25;9.63;;;;;;;;;;5029845;28;20207;-83
2022/12/11 11:44:38;;;;;;;24.23;9.53;;;;;;;;;;5029569;28;20529;-83
2022/12/11 11:47:24;;;;;;;27.23;10.00;;;;;;;;;;5030501;28;20480;-81
2022/12/11 11:49:54;;;;;;;23.40;9.17;;;;;;;;;;5029718;28;20041;-82
2022/12/11 11:52:24;;;;;;;22.23;9.37;;;;;;;;;;5037766;28;20014;-81
2022/12/11 11:54:59;;;;;;;25.10;10.40;;;;;;;;;;5023049;28;20017;-82
2022/12/11 11:57:31;;;;;;;25.07;11.47;;;;;;;;;;5029191;28;20726;-82
2022/12/11 11:59:58;;;;;;;23.33;11.37;;;;;;;;;;5028904;28;20380;-81
2022/12/11 12:02:23;;;;;;;26.47;12.63;;;;;;;;;;5013774;28;20036;-80
2022/12/11 12:04:50;;;;;;;27.37;11.77;;;;;;;;;;5021476;28;20473;-82
2022/12/11 12:07:18;;;;;;;27.93;10.93;;;;;;;;;;5031599;28;20022;-81
2022/12/11 12:09:43;;;;;;;24.70;10.67;;;;;;;;;;5019328;28;20028;-81
2022/12/11 12:12:28;;;;;;;23.17;9.13;;;;;;;;;;5043508;28;20022;-84
2022/12/11 12:15:17;;;;;;;25.17;10.37;;;;;;;;;;5034160;28;20024;-83
2022/12/11 12:17:45;;;;;;;22.53;9.63;;;;;;;;;;5026139;28;20111;-81
2022/12/11 12:20:30;;;;;;;25.30;9.80;;;;;;;;;;5029765;28;20022;-82
2022/12/11 12:23:05;;;;;;;23.33;10.10;;;;;;;;;;5025524;28;20124;-82
2022/12/11 12:25:51;;;;;;;24.90;9.87;;;;;;;;;;5025534;28;20472;-82
2022/12/11 12:28:35;;;;;;;23.37;11.67;;;;;;;;;;5036537;28;20425;-82
2022/12/11 12:31:12;;;;;;;25.27;11.13;;;;;;;;;;5028922;28;20021;-83
2022/12/11 12:33:43;;;;;;;28.97;10.63;;;;;;;;;;5026689;28;20108;-83
2022/12/11 12:36:27;;;;;;;25.30;11.40;;;;;;;;;;5026460;28;20022;-83
2022/12/11 12:38:56;;;;;;;25.87;10.23;;;;;;;;;;5030916;28;20381;-83
2022/12/11 12:41:27;;;;;;;32.53;10.60;;;;;;;;;;5019423;28;20029;-82
2022/12/11 12:44:07;;;;;;;28.73;11.20;;;;;;;;;;5014104;28;20025;-82
2022/12/11 12:46:49;;;;;;;23.17;9.03;;;;;;;;;;5039101;28;20048;-86
2022/12/11 12:49:18;;;;;;;20.85;9.45;;;;;;;;;;5041295;28;20013;-84
2022/12/11 12:51:44;;;;;;;24.43;9.83;;;;;;;;;;5050301;28;20026;-83
2022/12/11 12:54:12;;;;;;;19.33;8.07;;;;;;;;;;5029165;28;20112;-83
2022/12/11 12:56:39;;;;;;;25.67;10.10;;;;;;;;;;5031946;28;20369;-84
2022/12/11 12:59:17;;;;;;;22.67;9.20;;;;;;;;;;5033287;28;20025;-83
2022/12/11 13:01:45;;;;;;;22.43;8.73;;;;;;;;;;5033558;28;20026;-85
2022/12/11 13:04:28;;;;;;;17.80;7.83;;;;;;;;;;5035543;28;20136;-85
2022/12/11 13:06:53;;;;;;;21.67;9.00;;;;;;;;;;5033263;28;20075;-82
2022/12/11 13:09:23;;;;;;;21.40;9.70;;;;;;;;;;5033553;28;20037;-84
2022/12/11 13:11:52;;;;;;;20.87;9.40;;;;;;;;;;5031663;28;20079;-86
2022/12/11 13:14:17;;;;;;;24.73;9.53;;;;;;;;;;5029674;28;20017;-86
2022/12/11 13:16:43;;;;;;;21.77;9.27;;;;;;;;;;5036679;28;20098;-85
2022/12/11 13:19:29;;;;;;;19.13;8.35;;;;;;;;;;5023623;28;20519;-83
2022/12/11 13:22:01;;;;;;;22.90;9.90;;;;;;;;;;5024443;28;20987;-87
2022/12/11 13:24:27;;;;;;;24.35;10.02;;;;;;;;;;5024945;28;20029;-86
2022/12/11 13:26:52;;;;;;;25.17;10.60;;;;;;;;;;5024846;28;20025;-83
2022/12/11 13:29:30;;;;;;;23.47;10.60;;;;;;;;;;5034947;28;20025;-84
2022/12/11 13:31:56;;;;;;;27.00;10.67;;;;;;;;;;5036464;28;20025;-84
2022/12/11 13:34:22;;;;;;;26.07;11.73;;;;;;;;;;5025824;28;20496;-83
2022/12/11 13:36:49;;;;;;;30.53;11.90;;;;;;;;;;5025352;28;20044;-81
2022/12/11 13:39:19;;;;;;;26.20;10.97;;;;;;;;;;5022120;28;20021;-85
2022/12/11 13:41:46;;;;;;;30.37;12.13;;;;;;;;;;5025430;28;20018;-84
2022/12/11 13:44:17;;;;;;;24.97;10.70;;;;;;;;;;5025891;28;20029;-87
2022/12/11 13:46:42;;;;;;;27.20;10.53;;;;;;;;;;5022460;28;20496;-86
2022/12/11 13:49:17;;;;;;;29.50;12.07;;;;;;;;;;5028512;28;20017;-86
2022/12/11 13:51:50;;;;;;;23.87;10.37;;;;;;;;;;5025678;28;20770;-82
2022/12/11 13:54:16;;;;;;;27.70;11.33;;;;;;;;;;5022588;28;20021;-87
2022/12/11 13:56:59;;;;;;;19.10;8.10;;;;;;;;;;5040323;28;20029;-84
2022/12/11 13:59:26;;;;;;;28.27;10.40;;;;;;;;;;5037840;28;20045;-85
2022/12/11 14:01:52;;;;;;;21.20;9.20;;;;;;;;;;5027213;28;20029;-82
2022/12/11 14:04:19;;;;;;;20.47;9.40;;;;;;;;;;5031188;28;20028;-81
2022/12/11 14:06:44;;;;;;;24.13;9.17;;;;;;;;;;5035397;28;20029;-86
2022/12/11 14:09:13;;;;;;;22.83;8.57;;;;;;;;;;5029820;28;20482;-83
2022/12/11 14:11:42;;;;;;;23.90;9.53;;;;;;;;;;5031587;28;20112;-83
2022/12/11 14:14:15;;;;;;;25.90;10.07;;;;;;;;;;5032268;28;20109;-85
2022/12/11 14:16:41;;;;;;;25.43;10.07;;;;;;;;;;5032344;28;20025;-87
2022/12/11 14:19:07;;;;;;;25.43;10.27;;;;;;;;;;5031824;28;20029;-85
2022/12/11 14:21:32;;;;;;;28.03;9.90;;;;;;;;;;5030965;28;20068;-85
2022/12/11 14:23:59;;;;;;;26.57;9.60;;;;;;;;;;5033594;28;20420;-83
2022/12/11 14:26:32;;;;;;;21.97;8.47;;;;;;;;;;5035882;28;20109;-84
2022/12/11 14:28:58;;;;;;;29.07;9.70;;;;;;;;;;5032636;28;20018;-84
2022/12/11 14:31:32;;;;;;;24.10;9.97;;;;;;;;;;5020214;28;20080;-80
2022/12/11 14:34:21;;;;;;;24.47;9.50;;;;;;;;;;5015895;28;20080;-83
2022/12/11 14:36:47;;;;;;;27.37;10.50;;;;;;;;;;5026122;28;20061;-82
2022/12/11 14:39:12;;;;;;;20.07;8.23;;;;;;;;;;5034227;28;20434;-84